createdAt,value
2022-08-11T00:01:25.533Z,2.45
2022-08-11T00:04:01.052Z,2.28
2022-08-11T00:06:37.960Z,1.80
2022-08-11T00:09:09.217Z,1.73
2022-08-11T00:11:44.176Z,2.35
2022-08-11T00:14:37.180Z,2.00
2022-08-11T00:17:14.654Z,1.48
2022-08-11T00:20:14.133Z,2.08
2022-08-11T00:22:34.332Z,2.03
2022-08-11T00:25:15.554Z,2.10
2022-08-11T00:27:43.186Z,1.52
2022-08-11T00:30:12.283Z,1.70
2022-08-11T00:32:44.500Z,2.10
2022-08-11T00:35:51.815Z,2.90
2022-08-11T00:38:06.947Z,2.10
2022-08-11T00:40:51.390Z,2.05
2022-08-11T00:43:44.104Z,2.45
2022-08-11T00:46:18.687Z,1.92
2022-08-11T00:49:21.965Z,1.70
2022-08-11T00:52:04.013Z,1.92
2022-08-11T00:54:59.323Z,2.25
2022-08-11T00:58:26.842Z,2.05
2022-08-11T01:01:04.539Z,2.05
2022-08-11T01:04:28.812Z,2.95
2022-08-11T01:08:01.045Z,2.85
2022-08-11T01:10:50.821Z,2.22
2022-08-11T01:13:50.077Z,2.35
2022-08-11T01:16:48.804Z,2.50
2022-08-11T01:20:39.479Z,2.30
2022-08-11T01:23:32.355Z,2.08
2022-08-11T01:26:27.943Z,2.70
2022-08-11T01:29:35.322Z,2.42
2022-08-11T01:32:58.177Z,2.30
2022-08-11T01:36:06.243Z,2.83
2022-08-11T01:39:18.768Z,3.70
2022-08-11T01:42:47.746Z,3.67
2022-08-11T01:46:00.089Z,3.17
2022-08-11T01:48:43.310Z,2.30
2022-08-11T01:51:43.217Z,2.35
2022-08-11T01:54:34.594Z,2.55
2022-08-11T01:57:46.052Z,2.58
2022-08-11T02:03:57.556Z,2.33
2022-08-11T02:06:59.667Z,2.50
2022-08-11T02:09:51.949Z,2.30
2022-08-11T02:12:48.252Z,2.80
2022-08-11T02:15:36.995Z,2.70
2022-08-11T02:18:58.069Z,2.60
2022-08-11T02:22:05.397Z,2.50
2022-08-11T02:24:58.279Z,2.40
2022-08-11T02:27:47.800Z,2.05
2022-08-11T02:30:21.060Z,2.78
2022-08-11T02:33:24.482Z,2.55
2022-08-11T02:36:25.036Z,2.30
2022-08-11T02:39:10.096Z,3.05
2022-08-11T02:42:32.397Z,2.25
2022-08-11T02:45:09.334Z,2.30
2022-08-11T02:48:17.115Z,2.90
2022-08-11T02:51:01.354Z,2.60
2022-08-11T02:53:44.356Z,2.38
2022-08-11T02:56:29.222Z,2.88
2022-08-11T02:59:47.593Z,2.97
2022-08-11T03:02:33.725Z,2.70
2022-08-11T03:05:18.341Z,2.80
2022-08-11T03:08:15.118Z,2.35
2022-08-11T03:11:15.949Z,2.22
2022-08-11T03:14:26.115Z,3.00
2022-08-11T03:17:26.284Z,2.47
2022-08-11T03:20:24.539Z,2.85
2022-08-11T03:23:03.745Z,2.67
2022-08-11T03:25:40.024Z,2.67
2022-08-11T03:28:35.574Z,2.58
2022-08-11T03:31:26.245Z,2.88
2022-08-11T03:34:07.595Z,2.35
2022-08-11T03:37:14.970Z,2.90
2022-08-11T03:39:51.102Z,2.60
2022-08-11T03:42:42.407Z,2.83
2022-08-11T03:45:27.854Z,3.00
2022-08-11T03:48:12.247Z,2.58
2022-08-11T03:50:53.105Z,2.25
2022-08-11T03:53:56.430Z,2.42
2022-08-11T03:56:45.129Z,2.55
2022-08-11T03:59:56.945Z,2.35
2022-08-11T04:02:42.459Z,2.17
2022-08-11T04:05:58.528Z,2.35
2022-08-11T04:09:03.446Z,3.13
2022-08-11T04:11:48.672Z,2.13
2022-08-11T04:15:12.812Z,3.03
2022-08-11T04:18:24.948Z,2.28
2022-08-11T04:21:20.187Z,2.53
2022-08-11T04:24:38.437Z,2.90
2022-08-11T04:27:43.928Z,3.35
2022-08-11T04:30:40.488Z,3.35
2022-08-11T04:33:23.953Z,2.75
2022-08-11T04:36:13.704Z,3.30
2022-08-11T04:39:02.556Z,3.00
2022-08-11T04:42:09.030Z,2.08
2022-08-11T04:44:42.410Z,2.72
2022-08-11T04:48:01.869Z,2.58
2022-08-11T04:51:40.807Z,2.88
2022-08-11T04:54:54.449Z,2.22
2022-08-11T04:58:00.217Z,2.70
2022-08-11T05:00:51.729Z,2.37
2022-08-11T05:03:42.449Z,2.13
2022-08-11T05:09:01.206Z,2.35
2022-08-11T05:11:57.987Z,2.30
2022-08-11T05:15:00.154Z,2.17
2022-08-11T05:18:24.047Z,2.00
2022-08-11T05:21:15.133Z,2.33
2022-08-11T05:24:10.696Z,2.08
2022-08-11T05:27:06.889Z,2.20
2022-08-11T05:30:04.851Z,1.85
2022-08-11T05:33:01.528Z,2.42
2022-08-11T05:36:01.857Z,2.25
2022-08-11T05:38:50.234Z,2.17
2022-08-11T05:41:40.629Z,2.30
2022-08-11T05:44:26.724Z,1.95
2022-08-11T05:47:13.653Z,1.67
2022-08-11T05:50:00.912Z,2.10
2022-08-11T05:52:55.494Z,1.75
2022-08-11T05:56:01.966Z,1.67
2022-08-11T05:58:41.332Z,2.10
2022-08-11T06:01:11.165Z,2.45
2022-08-11T06:03:58.600Z,1.92
2022-08-11T06:06:29.539Z,1.77
2022-08-11T06:08:58.371Z,2.13
2022-08-11T06:11:43.940Z,1.50
2022-08-11T06:14:13.437Z,1.73
2022-08-11T06:16:43.370Z,1.98
2022-08-11T06:19:11.712Z,1.58
2022-08-11T06:21:44.593Z,1.33
2022-08-11T06:24:13.919Z,1.38
2022-08-11T06:27:11.918Z,1.55
2022-08-11T06:29:54.812Z,1.25
2022-08-11T06:32:33.089Z,1.73
2022-08-11T06:35:23.925Z,1.40
2022-08-11T06:38:06.823Z,1.48
2022-08-11T06:41:10.826Z,1.98
2022-08-11T06:44:13.512Z,1.35
2022-08-11T06:46:51.205Z,1.48
2022-08-11T06:49:43.059Z,1.73
2022-08-11T06:52:35.741Z,1.60
2022-08-11T06:55:55.596Z,1.50
2022-08-11T06:58:18.066Z,1.35
2022-08-11T07:00:49.018Z,1.40
2022-08-11T07:03:20.948Z,1.58
2022-08-11T07:05:59.045Z,1.38
2022-08-11T07:09:02.093Z,1.50
2022-08-11T07:12:19.707Z,1.42
2022-08-11T07:15:12.078Z,1.40
2022-08-11T07:17:49.883Z,1.45
2022-08-11T07:20:37.216Z,1.63
2022-08-11T07:23:28.058Z,1.92
2022-08-11T07:26:18.527Z,1.80
2022-08-11T07:28:59.253Z,1.98
2022-08-11T07:31:37.658Z,2.00
2022-08-11T07:34:22.545Z,1.60
2022-08-11T07:37:03.474Z,1.40
2022-08-11T07:39:36.239Z,1.60
2022-08-11T07:42:12.439Z,1.50
2022-08-11T07:45:01.041Z,1.50
2022-08-11T07:47:47.677Z,1.02
2022-08-11T07:50:33.743Z,1.38
2022-08-11T07:53:02.963Z,1.60
2022-08-11T07:55:50.213Z,1.35
2022-08-11T07:58:45.811Z,1.52
2022-08-11T08:01:44.301Z,1.42
2022-08-11T08:04:32.696Z,1.55
2022-08-11T08:07:21.469Z,1.23
2022-08-11T08:10:08.997Z,1.65
2022-08-11T08:13:01.057Z,1.40
2022-08-11T08:15:47.506Z,1.35
2022-08-11T08:18:26.116Z,1.42
2022-08-11T08:20:57.234Z,1.33
2022-08-11T08:23:34.709Z,1.17
2022-08-11T08:26:13.686Z,1.35
2022-08-11T08:28:46.877Z,1.42
2022-08-11T08:31:15.897Z,1.15
2022-08-11T08:33:44.197Z,0.82
2022-08-11T08:36:12.654Z,1.02
2022-08-11T08:38:47.459Z,1.50
2022-08-11T08:41:19.984Z,1.10
2022-08-11T08:43:51.938Z,1.13
2022-08-11T08:46:24.353Z,1.38
2022-08-11T08:48:53.604Z,1.52
2022-08-11T08:52:01.267Z,1.67
2022-08-11T08:54:42.882Z,1.48
2022-08-11T08:57:12.467Z,1.25
2022-08-11T08:59:49.282Z,2.28
2022-08-11T09:02:34.806Z,2.15
2022-08-11T09:05:04.665Z,1.30
2022-08-11T09:07:39.486Z,1.33
2022-08-11T09:10:11.790Z,1.77
2022-08-11T09:12:43.036Z,1.33
2022-08-11T09:15:47.816Z,1.10
2022-08-11T09:18:21.160Z,1.23
2022-08-11T09:20:50.506Z,1.50
2022-08-11T09:26:57.605Z,1.63
2022-08-11T09:29:26.589Z,1.05
2022-08-11T09:32:01.744Z,1.02
2022-08-11T09:37:29.033Z,1.55
2022-08-11T09:40:31.472Z,1.15
2022-08-11T09:43:23.845Z,1.02
2022-08-11T09:45:54.065Z,1.40
2022-08-11T09:48:24.256Z,1.73
2022-08-11T09:50:57.612Z,0.90
2022-08-11T09:53:36.168Z,0.80
2022-08-11T09:56:38.068Z,1.00
2022-08-11T09:59:08.161Z,1.10
2022-08-11T10:01:43.617Z,1.02
2022-08-11T10:04:17.815Z,0.95
2022-08-11T10:07:10.611Z,0.90
2022-08-11T10:10:00.588Z,0.90
2022-08-11T10:15:38.953Z,1.40
2022-08-11T10:18:32.736Z,0.88
2022-08-11T10:21:11.885Z,1.40
2022-08-11T10:24:05.555Z,1.10
2022-08-11T10:26:53.592Z,0.82
2022-08-11T10:29:52.528Z,1.10
2022-08-11T10:32:58.307Z,1.05
2022-08-11T10:35:31.920Z,0.80
2022-08-11T10:38:06.086Z,0.90
2022-08-11T10:40:36.227Z,1.30
2022-08-11T10:43:12.675Z,1.05
2022-08-11T10:46:18.054Z,1.00
2022-08-11T10:48:59.452Z,2.55
2022-08-11T10:51:51.448Z,0.73
2022-08-11T10:54:39.802Z,0.90
2022-08-11T10:57:27.773Z,0.88
2022-08-11T10:59:56.773Z,0.70
2022-08-11T11:02:26.381Z,0.80
2022-08-11T11:05:27.072Z,1.02
2022-08-11T11:08:45.442Z,0.85
2022-08-11T11:11:49.443Z,0.90
2022-08-11T11:24:52.736Z,0.82
2022-08-11T11:27:46.607Z,0.80
2022-08-11T11:30:15.539Z,1.10
2022-08-11T11:33:08.700Z,1.23
2022-08-11T11:36:02.647Z,0.90
2022-08-11T11:38:33.362Z,0.82
2022-08-11T11:41:24.060Z,1.48
2022-08-11T11:44:16.138Z,0.98
2022-08-11T11:50:33.985Z,1.00
2022-08-11T11:53:10.077Z,1.20
2022-08-11T11:59:56.861Z,1.13
2022-08-11T12:02:24.839Z,1.00
2022-08-11T12:04:52.388Z,0.80
2022-08-11T12:07:39.543Z,1.15
2022-08-11T12:10:09.377Z,0.93
2022-08-11T12:12:55.398Z,1.50
2022-08-11T12:16:03.657Z,0.90
2022-08-11T12:18:11.458Z,1.13
2022-08-11T12:20:39.660Z,1.35
2022-08-11T12:23:25.852Z,1.73
2022-08-11T12:26:27.039Z,0.65
2022-08-11T12:28:58.383Z,1.23
2022-08-11T12:31:26.172Z,0.85
2022-08-11T12:33:54.393Z,1.35
2022-08-11T12:36:22.777Z,0.75
2022-08-11T12:38:52.377Z,1.15
2022-08-11T12:41:42.933Z,1.13
2022-08-11T12:44:30.723Z,1.40
2022-08-11T12:47:02.305Z,1.38
2022-08-11T12:49:55.099Z,1.17
2022-08-11T12:52:30.259Z,0.70
2022-08-11T12:55:13.185Z,1.20
2022-08-11T12:58:08.217Z,1.02
2022-08-11T13:00:54.308Z,1.40
2022-08-11T13:10:45.731Z,0.85
2022-08-11T13:13:55.458Z,1.92
2022-08-11T13:16:06.088Z,1.27
2022-08-11T13:18:37.971Z,0.93
2022-08-11T13:21:09.358Z,1.00
2022-08-11T13:23:40.608Z,0.90
2022-08-11T13:26:41.643Z,0.90
2022-08-11T13:29:32.536Z,0.90
2022-08-11T13:32:00.429Z,1.00
2022-08-11T13:34:44.852Z,0.80
2022-08-11T13:38:19.158Z,1.10
2022-08-11T13:40:45.868Z,0.90
2022-08-11T13:43:19.898Z,1.13
2022-08-11T13:52:38.227Z,0.82
2022-08-11T13:55:11.967Z,1.05
2022-08-11T13:58:07.308Z,0.70
2022-08-11T14:00:52.597Z,1.73
2022-08-11T14:04:31.021Z,1.27
2022-08-11T14:06:38.698Z,1.00
2022-08-11T14:09:10.274Z,0.80
2022-08-11T14:12:22.124Z,1.02
2022-08-11T14:14:52.729Z,1.20
2022-08-11T14:17:47.176Z,1.00
2022-08-11T14:20:39.596Z,1.13
2022-08-11T14:23:13.053Z,0.73
2022-08-11T14:26:06.388Z,0.70
2022-08-11T14:28:57.215Z,1.00
2022-08-11T14:31:26.311Z,1.23
2022-08-11T14:34:02.240Z,0.90
2022-08-11T14:36:56.870Z,0.73
2022-08-11T14:39:27.365Z,0.70
2022-08-11T14:42:27.839Z,1.00
2022-08-11T14:45:23.386Z,0.80
2022-08-11T14:48:01.449Z,0.90
2022-08-11T14:53:30.718Z,1.20
2022-08-11T14:56:21.448Z,0.80
2022-08-11T14:58:49.186Z,0.80
2022-08-11T15:01:52.745Z,0.85
2022-08-11T15:04:35.245Z,0.85
2022-08-11T15:07:17.410Z,1.02
2022-08-11T15:10:11.714Z,1.00
2022-08-11T15:12:37.583Z,0.82
2022-08-11T15:15:41.642Z,0.80
2022-08-11T15:18:13.867Z,0.80
2022-08-11T15:21:00.219Z,0.68
2022-08-11T15:23:46.672Z,0.60
2022-08-11T15:26:43.520Z,0.60
2022-08-11T15:29:48.593Z,0.70
2022-08-11T15:32:23.152Z,0.90
2022-08-11T15:35:17.767Z,1.00
2022-08-11T15:37:54.373Z,1.30
2022-08-11T15:40:49.490Z,1.10
2022-08-11T15:46:31.703Z,0.70
2022-08-11T15:49:23.976Z,0.98
2022-08-11T15:52:11.433Z,0.90
2022-08-11T15:54:43.595Z,1.30
2022-08-11T15:57:39.433Z,1.23
2022-08-11T16:00:27.306Z,0.90
2022-08-11T16:02:57.465Z,0.90
2022-08-11T16:05:45.500Z,0.90
2022-08-11T16:08:29.500Z,1.20
2022-08-11T16:11:02.178Z,0.80
2022-08-11T16:13:33.167Z,1.00
2022-08-11T16:16:17.506Z,0.65
2022-08-11T16:19:08.593Z,1.33
2022-08-11T16:21:40.442Z,0.98
2022-08-11T16:27:01.790Z,0.90
2022-08-11T16:27:12.962Z,1.00
2022-08-11T16:29:48.110Z,0.98
2022-08-11T16:32:23.690Z,0.80
2022-08-11T16:35:21.687Z,1.52
2022-08-11T16:38:09.723Z,0.88
2022-08-11T16:40:39.469Z,1.67
2022-08-11T16:43:27.839Z,1.00
2022-08-11T16:46:22.282Z,1.38
2022-08-11T16:48:54.078Z,0.98
2022-08-11T16:51:22.465Z,1.33
2022-08-11T16:54:05.562Z,0.85
2022-08-11T16:56:42.131Z,1.05
2022-08-11T16:59:17.399Z,1.30
2022-08-11T17:01:48.066Z,1.00
2022-08-11T17:04:49.802Z,0.80
2022-08-11T17:07:41.909Z,2.03
2022-08-11T17:10:52.582Z,1.20
2022-08-11T17:13:34.039Z,1.63
2022-08-11T17:16:13.114Z,1.00
2022-08-11T17:18:45.672Z,1.25
2022-08-11T17:21:21.434Z,0.90
2022-08-11T17:23:55.480Z,1.05
2022-08-11T17:26:59.944Z,1.00
2022-08-11T17:29:54.824Z,1.42
2022-08-11T17:33:04.014Z,1.15
2022-08-11T17:35:39.005Z,1.33
2022-08-11T17:41:23.049Z,2.50
2022-08-11T17:44:11.274Z,1.17
2022-08-11T17:47:03.592Z,2.70
2022-08-11T17:49:37.903Z,0.90
2022-08-11T17:52:25.734Z,0.93
2022-08-11T17:55:14.018Z,1.63
2022-08-11T17:58:00.948Z,1.20
2022-08-11T18:00:29.195Z,1.65
2022-08-11T18:03:18.198Z,1.08
2022-08-11T18:05:47.483Z,1.83
2022-08-11T18:08:35.591Z,2.13
2022-08-11T18:12:07.054Z,1.17
2022-08-11T18:14:30.283Z,1.00
2022-08-11T18:17:16.661Z,1.30
2022-08-11T18:20:03.043Z,0.93
2022-08-11T18:23:02.818Z,0.85
2022-08-11T18:25:59.762Z,0.95
2022-08-11T18:28:49.187Z,0.95
2022-08-11T18:31:36.996Z,1.80
2022-08-11T18:34:26.245Z,1.08
2022-08-11T18:37:29.077Z,1.20
2022-08-11T18:40:24.379Z,0.98
2022-08-11T18:43:14.053Z,1.20
2022-08-11T18:46:06.852Z,1.13
2022-08-11T18:48:56.887Z,1.27
2022-08-11T18:51:45.053Z,1.10
2022-08-11T18:54:31.854Z,1.00
2022-08-11T18:57:22.161Z,1.15
2022-08-11T19:00:09.325Z,1.10
2022-08-11T19:02:57.492Z,1.00
2022-08-11T19:06:32.350Z,1.13
2022-08-11T19:08:56.453Z,1.30
2022-08-11T19:11:44.064Z,1.05
2022-08-11T19:14:31.776Z,0.90
2022-08-11T19:17:45.158Z,1.00
2022-08-11T19:20:30.521Z,1.15
2022-08-11T19:23:17.435Z,1.25
2022-08-11T19:26:04.581Z,1.67
2022-08-11T19:28:52.559Z,1.23
2022-08-11T19:31:44.396Z,1.25
2022-08-11T19:34:37.464Z,1.00
2022-08-11T19:37:25.812Z,2.03
2022-08-11T19:40:27.606Z,1.20
2022-08-11T19:43:23.738Z,1.45
2022-08-11T19:46:14.967Z,1.58
2022-08-11T19:49:02.754Z,1.02
2022-08-11T19:51:53.978Z,1.60
2022-08-11T19:54:47.503Z,1.30
2022-08-11T19:57:39.382Z,1.75
2022-08-11T20:00:32.215Z,1.25
2022-08-11T20:03:19.919Z,1.27
2022-08-11T20:06:06.751Z,1.55
2022-08-11T20:08:58.402Z,1.20
2022-08-11T20:11:49.183Z,1.00
2022-08-11T20:14:37.385Z,0.98
2022-08-11T20:17:26.074Z,1.60
2022-08-11T20:20:16.315Z,1.45
2022-08-11T20:23:04.008Z,1.38
2022-08-11T20:25:55.715Z,1.50
2022-08-11T20:28:46.536Z,2.00
2022-08-11T20:31:32.922Z,1.17
2022-08-11T20:34:20.604Z,1.40
2022-08-11T20:37:08.305Z,1.77
2022-08-11T20:39:54.815Z,1.40
2022-08-11T20:42:42.348Z,2.15
2022-08-11T20:45:31.452Z,1.67
2022-08-11T20:48:19.452Z,1.83
2022-08-11T20:51:09.984Z,1.27
2022-08-11T20:54:05.751Z,1.50
2022-08-11T20:56:54.598Z,1.30
2022-08-11T20:59:50.632Z,1.45
2022-08-11T21:02:44.440Z,1.60
2022-08-11T21:06:08.851Z,1.80
2022-08-11T21:11:29.173Z,1.25
2022-08-11T21:14:16.791Z,1.20
2022-08-11T21:17:27.029Z,1.80
2022-08-11T21:20:20.435Z,1.58
2022-08-11T21:23:14.956Z,1.55
2022-08-11T21:26:27.499Z,1.95
2022-08-11T21:29:16.826Z,1.40
2022-08-11T21:32:05.094Z,1.60
2022-08-11T21:34:52.905Z,1.23
2022-08-11T21:37:39.822Z,1.38
2022-08-11T21:40:28.495Z,1.65
2022-08-11T21:43:16.302Z,1.45
2022-08-11T21:46:07.298Z,1.77
2022-08-11T21:48:55.349Z,1.20
2022-08-11T21:51:41.544Z,1.42
2022-08-11T21:54:30.822Z,1.05
2022-08-11T21:57:17.714Z,2.20
2022-08-11T22:00:11.903Z,1.40
2022-08-11T22:02:58.825Z,1.17
2022-08-11T22:05:49.599Z,1.65
2022-08-11T22:08:36.348Z,1.45
2022-08-11T22:11:32.446Z,1.50
2022-08-11T22:14:20.393Z,1.10
2022-08-11T22:17:06.717Z,1.58
2022-08-11T22:19:55.801Z,1.38
2022-08-11T22:22:51.115Z,2.13
2022-08-11T22:25:50.816Z,1.70
2022-08-11T22:28:38.681Z,1.63
2022-08-11T22:31:26.902Z,1.92
2022-08-11T22:34:12.593Z,1.40
2022-08-11T22:39:56.581Z,1.52
2022-08-11T22:42:48.333Z,1.05
2022-08-11T22:45:34.520Z,1.55
2022-08-11T22:48:23.304Z,1.40
2022-08-11T22:51:11.058Z,1.45
2022-08-11T22:53:59.134Z,1.25
2022-08-11T22:56:48.270Z,1.40
2022-08-11T22:59:37.479Z,1.40
2022-08-11T23:02:25.491Z,1.65
2022-08-11T23:05:13.030Z,1.40
2022-08-11T23:08:00.339Z,2.25
2022-08-11T23:10:46.565Z,1.17
2022-08-11T23:13:32.929Z,1.63
2022-08-11T23:16:19.702Z,1.55
2022-08-11T23:19:06.953Z,1.52
2022-08-11T23:21:53.839Z,1.10
2022-08-11T23:24:40.997Z,0.90
2022-08-11T23:27:28.332Z,1.05
2022-08-11T23:30:19.252Z,1.55
2022-08-11T23:33:07.035Z,1.42
2022-08-11T23:35:53.359Z,1.38
2022-08-11T23:38:42.750Z,1.40
2022-08-11T23:41:29.180Z,1.08
2022-08-11T23:44:15.424Z,2.08
2022-08-11T23:47:02.647Z,1.65
2022-08-11T23:49:49.131Z,1.23
2022-08-11T23:52:35.285Z,1.35
2022-08-11T23:55:22.010Z,1.55
2022-08-11T23:58:08.304Z,2.10
